createdAt,value
2023-02-16T00:00:53.883Z,32.33
2023-02-16T00:03:23.013Z,36.08
2023-02-16T00:05:51.401Z,36.70
2023-02-16T00:08:18.121Z,37.10
2023-02-16T00:11:08.758Z,35.13
2023-02-16T00:13:44.946Z,34.35
2023-02-16T00:16:23.487Z,38.20
2023-02-16T00:18:51.550Z,35.30
2023-02-16T00:21:19.107Z,41.00
2023-02-16T00:23:46.468Z,31.60
2023-02-16T00:26:19.606Z,37.55
2023-02-16T00:28:48.982Z,34.03
2023-02-16T00:31:18.792Z,35.88
2023-02-16T00:33:46.525Z,39.53
2023-02-16T00:36:13.538Z,32.92
2023-02-16T00:38:40.596Z,36.95
2023-02-16T00:41:36.063Z,32.03
2023-02-16T00:44:04.894Z,34.30
2023-02-16T00:46:32.348Z,34.58
2023-02-16T00:49:01.428Z,31.27
2023-02-16T00:51:28.631Z,34.08
2023-02-16T00:53:55.854Z,30.63
2023-02-16T00:56:22.923Z,31.67
2023-02-16T00:58:52.880Z,30.77
2023-02-16T01:01:31.204Z,35.05
2023-02-16T01:04:01.458Z,37.25
2023-02-16T01:06:47.046Z,29.77
2023-02-16T01:09:37.801Z,35.22
2023-02-16T01:12:09.382Z,35.08
2023-02-16T01:14:36.625Z,36.17
2023-02-16T01:17:03.825Z,32.58
2023-02-16T01:19:30.730Z,32.67
2023-02-16T01:21:57.510Z,36.50
2023-02-16T01:24:24.616Z,31.17
2023-02-16T01:26:51.488Z,31.00
2023-02-16T01:29:20.500Z,31.83
2023-02-16T01:31:48.111Z,33.58
2023-02-16T01:34:15.342Z,31.67
2023-02-16T01:36:47.487Z,31.83
2023-02-16T01:39:17.272Z,39.85
2023-02-16T01:42:08.892Z,30.95
2023-02-16T01:44:58.521Z,31.25
2023-02-16T01:47:25.254Z,32.50
2023-02-16T01:49:52.247Z,33.45
2023-02-16T01:52:38.148Z,33.00
2023-02-16T01:55:17.300Z,35.88
2023-02-16T01:57:47.743Z,32.15
2023-02-16T02:00:35.050Z,37.63
2023-02-16T02:03:23.377Z,36.67
2023-02-16T02:05:51.641Z,34.45
2023-02-16T02:08:26.355Z,31.33
2023-02-16T02:11:14.609Z,36.92
2023-02-16T02:13:47.523Z,31.40
2023-02-16T02:16:19.436Z,36.67
2023-02-16T02:18:46.351Z,30.92
2023-02-16T02:22:00.636Z,31.77
2023-02-16T02:24:48.629Z,34.08
2023-02-16T02:27:31.567Z,25.83
2023-02-16T02:30:10.372Z,30.80
2023-02-16T02:33:09.565Z,30.55
2023-02-16T02:35:45.493Z,33.80
2023-02-16T02:38:25.746Z,30.73
2023-02-16T02:42:05.007Z,30.80
2023-02-16T02:44:37.902Z,39.67
2023-02-16T02:47:04.861Z,35.13
2023-02-16T02:49:32.050Z,39.58
2023-02-16T02:51:59.403Z,34.22
2023-02-16T02:54:56.577Z,31.90
2023-02-16T02:58:05.745Z,26.75
2023-02-16T03:00:44.504Z,29.88
2023-02-16T03:03:17.698Z,28.00
2023-02-16T03:05:51.276Z,33.80
2023-02-16T03:08:23.340Z,27.48
2023-02-16T03:11:12.975Z,29.75
2023-02-16T03:13:45.301Z,28.85
2023-02-16T03:16:16.460Z,29.48
2023-02-16T03:19:04.103Z,27.52
2023-02-16T03:21:51.652Z,33.78
2023-02-16T03:24:45.601Z,30.23
2023-02-16T03:27:34.906Z,27.88
2023-02-16T03:30:02.987Z,31.92
2023-02-16T03:32:30.470Z,32.20
2023-02-16T03:34:57.569Z,27.52
2023-02-16T03:37:24.617Z,33.15
2023-02-16T03:40:09.988Z,31.20
2023-02-16T03:42:37.037Z,26.63
2023-02-16T03:45:04.909Z,30.48
2023-02-16T03:47:31.697Z,33.97
2023-02-16T03:49:58.711Z,36.60
2023-02-16T03:52:25.739Z,32.90
2023-02-16T03:54:52.478Z,30.65
2023-02-16T03:57:19.461Z,32.65
2023-02-16T03:59:46.409Z,27.02
2023-02-16T04:02:13.536Z,31.33
2023-02-16T04:04:40.334Z,25.80
2023-02-16T04:07:07.592Z,33.13
2023-02-16T04:09:34.441Z,31.23
2023-02-16T04:12:20.116Z,33.55
2023-02-16T04:14:46.982Z,31.30
2023-02-16T04:17:14.064Z,31.83
2023-02-16T04:19:41.651Z,30.20
2023-02-16T04:22:09.997Z,29.25
2023-02-16T04:24:36.965Z,31.65
2023-02-16T04:27:04.546Z,28.05
2023-02-16T04:29:31.693Z,30.75
2023-02-16T04:31:58.758Z,31.77
2023-02-16T04:34:25.846Z,30.95
2023-02-16T04:36:52.811Z,25.85
2023-02-16T04:39:20.545Z,24.52
2023-02-16T04:41:47.381Z,25.40
2023-02-16T04:44:14.524Z,26.23
2023-02-16T04:46:41.435Z,25.95
2023-02-16T04:49:08.450Z,25.10
2023-02-16T04:51:35.163Z,27.90
2023-02-16T04:54:01.952Z,31.30
2023-02-16T04:56:28.793Z,24.95
2023-02-16T04:58:56.556Z,28.58
2023-02-16T05:01:25.943Z,35.63
2023-02-16T05:03:52.849Z,30.63
2023-02-16T05:06:20.013Z,29.63
2023-02-16T05:08:47.154Z,30.80
2023-02-16T05:11:32.417Z,30.50
2023-02-16T05:14:18.476Z,30.17
2023-02-16T05:16:46.365Z,25.13
2023-02-16T05:19:13.846Z,34.03
2023-02-16T05:21:40.865Z,27.45
2023-02-16T05:24:10.051Z,35.63
2023-02-16T05:26:39.362Z,32.42
2023-02-16T05:29:06.729Z,34.70
2023-02-16T05:31:33.908Z,25.48
2023-02-16T05:34:00.961Z,24.98
2023-02-16T05:36:27.788Z,37.95
2023-02-16T05:38:54.820Z,27.67
2023-02-16T05:41:24.982Z,25.15
2023-02-16T05:43:58.070Z,29.85
2023-02-16T05:46:26.701Z,28.48
2023-02-16T05:48:53.717Z,22.55
2023-02-16T05:51:22.017Z,25.08
2023-02-16T05:53:48.965Z,25.27
2023-02-16T05:56:17.044Z,22.95
2023-02-16T05:58:44.003Z,21.60
2023-02-16T06:01:11.532Z,18.58
2023-02-16T06:03:38.635Z,19.17
2023-02-16T06:06:06.168Z,17.55
2023-02-16T06:08:33.940Z,18.67
2023-02-16T06:11:01.106Z,19.92
2023-02-16T06:13:28.061Z,21.92
2023-02-16T06:15:57.000Z,18.52
2023-02-16T06:18:25.120Z,19.50
2023-02-16T06:20:52.254Z,18.80
2023-02-16T06:23:18.993Z,17.33
2023-02-16T06:25:50.533Z,19.92
2023-02-16T06:28:17.467Z,14.50
2023-02-16T06:30:44.265Z,18.52
2023-02-16T06:33:11.651Z,16.45
2023-02-16T06:35:38.645Z,18.38
2023-02-16T06:38:05.320Z,19.67
2023-02-16T06:40:31.990Z,19.13
2023-02-16T06:42:58.747Z,19.85
2023-02-16T06:45:25.732Z,16.42
2023-02-16T06:47:52.695Z,22.80
2023-02-16T06:50:19.741Z,17.67
2023-02-16T06:52:46.643Z,23.10
2023-02-16T06:55:13.721Z,14.80
2023-02-16T06:57:40.667Z,17.92
2023-02-16T07:00:08.322Z,17.67
2023-02-16T07:02:35.942Z,16.02
2023-02-16T07:05:03.399Z,17.02
2023-02-16T07:07:31.272Z,27.23
2023-02-16T07:09:58.535Z,19.23
2023-02-16T07:12:25.378Z,16.90
2023-02-16T07:14:52.313Z,16.88
2023-02-16T07:17:19.018Z,15.43
2023-02-16T07:19:46.015Z,17.67
2023-02-16T07:22:12.957Z,15.57
2023-02-16T07:24:39.773Z,19.42
2023-02-16T07:27:07.186Z,17.75
2023-02-16T07:29:33.977Z,18.00
2023-02-16T07:32:01.005Z,18.42
2023-02-16T07:34:27.989Z,17.50
2023-02-16T07:36:54.735Z,24.13
2023-02-16T07:39:21.472Z,22.27
2023-02-16T07:41:48.269Z,16.77
2023-02-16T07:44:15.026Z,18.48
2023-02-16T07:46:41.980Z,20.17
2023-02-16T07:49:08.661Z,21.25
2023-02-16T07:51:36.384Z,16.75
2023-02-16T07:54:03.693Z,24.73
2023-02-16T07:56:32.479Z,21.77
2023-02-16T07:59:01.274Z,20.75
2023-02-16T08:01:30.099Z,21.58
2023-02-16T08:03:57.525Z,19.48
2023-02-16T08:06:24.858Z,22.38
2023-02-16T08:08:51.900Z,23.77
2023-02-16T08:11:22.006Z,20.88
2023-02-16T08:13:49.362Z,21.80
2023-02-16T08:16:19.459Z,20.42
2023-02-16T08:18:46.724Z,24.05
2023-02-16T08:21:19.169Z,27.70
2023-02-16T08:24:07.096Z,20.83
2023-02-16T08:26:39.727Z,25.40
2023-02-16T08:29:10.314Z,23.65
2023-02-16T08:31:38.643Z,24.58
2023-02-16T08:34:06.040Z,27.77
2023-02-16T08:36:38.707Z,22.73
2023-02-16T08:39:16.538Z,23.67
2023-02-16T08:41:45.073Z,28.50
2023-02-16T08:44:12.886Z,28.80
2023-02-16T08:46:42.151Z,29.48
2023-02-16T08:49:10.784Z,27.90
2023-02-16T08:51:42.542Z,26.33
2023-02-16T08:54:10.295Z,28.40
2023-02-16T08:56:37.261Z,31.25
2023-02-16T08:59:04.795Z,29.63
2023-02-16T09:01:32.618Z,29.70
2023-02-16T09:03:59.404Z,28.08
2023-02-16T09:06:26.224Z,24.73
2023-02-16T09:08:55.546Z,26.20
2023-02-16T09:11:25.810Z,29.88
2023-02-16T09:13:53.493Z,27.95
2023-02-16T09:16:25.438Z,29.98
2023-02-16T09:18:53.234Z,32.80
2023-02-16T09:21:22.439Z,33.45
2023-02-16T09:23:51.028Z,29.70
2023-02-16T09:26:21.562Z,30.95
2023-02-16T09:28:49.425Z,31.05
2023-02-16T09:31:16.215Z,35.35
2023-02-16T09:33:44.077Z,32.95
2023-02-16T09:36:12.355Z,36.67
2023-02-16T09:38:39.848Z,42.47
2023-02-16T09:41:09.473Z,37.42
2023-02-16T09:43:45.714Z,34.80
2023-02-16T09:46:15.810Z,39.95
2023-02-16T09:48:48.855Z,41.95
2023-02-16T09:51:29.513Z,44.55
2023-02-16T09:54:11.137Z,40.25
2023-02-16T09:56:55.895Z,36.95
2023-02-16T09:59:28.887Z,31.13
2023-02-16T10:02:40.250Z,37.58
2023-02-16T10:05:25.869Z,36.78
2023-02-16T10:08:04.713Z,42.15
2023-02-16T10:10:53.658Z,43.17
2023-02-16T10:13:41.892Z,41.90
2023-02-16T10:16:15.886Z,45.50
2023-02-16T10:18:49.516Z,42.22
2023-02-16T10:21:24.720Z,41.33
2023-02-16T10:23:59.795Z,43.80
2023-02-16T10:29:00.553Z,37.00
2023-02-16T10:31:43.658Z,34.42
2023-02-16T10:34:13.662Z,39.33
2023-02-16T10:37:05.929Z,40.30
2023-02-16T10:39:39.544Z,42.70
2023-02-16T10:42:46.342Z,36.80
2023-02-16T10:45:19.610Z,42.35
2023-02-16T10:47:47.534Z,45.70
2023-02-16T10:50:28.837Z,39.70
2023-02-16T10:53:00.104Z,40.47
2023-02-16T10:55:27.157Z,45.33
2023-02-16T10:57:58.563Z,41.70
2023-02-16T11:00:39.298Z,44.95
2023-02-16T11:03:12.566Z,40.35
2023-02-16T11:05:41.412Z,48.97
2023-02-16T11:08:12.936Z,41.58
2023-02-16T11:10:51.062Z,41.55
2023-02-16T11:13:37.569Z,44.05
2023-02-16T11:16:14.010Z,45.53
2023-02-16T11:18:45.406Z,43.10
2023-02-16T11:21:13.491Z,44.08
2023-02-16T11:23:42.211Z,41.90
2023-02-16T11:26:12.421Z,46.40
2023-02-16T11:28:48.108Z,44.58
2023-02-16T11:31:53.643Z,48.00
2023-02-16T11:34:27.092Z,45.30
2023-02-16T11:37:03.486Z,45.70
2023-02-16T11:39:36.377Z,46.15
2023-02-16T11:42:07.991Z,44.80
2023-02-16T11:44:52.810Z,45.83
2023-02-16T11:47:35.064Z,47.25
2023-02-16T11:50:19.509Z,45.63
2023-02-16T11:52:49.893Z,45.83
2023-02-16T11:55:27.051Z,52.05
2023-02-16T11:57:54.541Z,43.65
2023-02-16T12:00:24.860Z,52.45
2023-02-16T12:03:15.614Z,51.10
2023-02-16T12:05:53.200Z,47.00
2023-02-16T12:08:58.450Z,51.60
2023-02-16T12:11:33.384Z,46.60
2023-02-16T12:14:18.684Z,50.38
2023-02-16T12:16:57.722Z,60.35
2023-02-16T12:19:32.133Z,52.13
2023-02-16T12:22:10.133Z,59.30
2023-02-16T12:24:45.753Z,58.15
2023-02-16T12:27:30.085Z,60.40
2023-02-16T12:30:17.677Z,58.97
2023-02-16T12:33:12.161Z,50.13
2023-02-16T12:36:00.450Z,53.42
2023-02-16T12:38:46.611Z,57.90
2023-02-16T12:41:41.418Z,59.13
2023-02-16T12:44:22.364Z,63.58
2023-02-16T12:46:58.422Z,62.75
2023-02-16T12:49:36.292Z,55.58
2023-02-16T12:52:27.292Z,63.45
2023-02-16T12:55:15.513Z,64.75
2023-02-16T12:57:58.435Z,64.65
2023-02-16T13:00:37.322Z,63.97
2023-02-16T13:03:39.670Z,60.28
2023-02-16T13:06:21.708Z,60.17
2023-02-16T13:09:25.192Z,60.92
2023-02-16T13:12:02.458Z,64.95
2023-02-16T13:14:33.550Z,65.72
2023-02-16T13:17:04.627Z,59.22
2023-02-16T13:19:31.879Z,70.47
2023-02-16T13:22:23.812Z,61.85
2023-02-16T13:24:59.949Z,69.93
2023-02-16T13:27:54.893Z,76.20
2023-02-16T13:30:36.934Z,73.83
2023-02-16T13:33:16.263Z,66.03
2023-02-16T13:36:24.170Z,64.68
2023-02-16T13:38:53.804Z,64.93
2023-02-16T13:41:34.523Z,66.78
2023-02-16T13:44:11.804Z,67.90
2023-02-16T13:46:43.572Z,64.78
2023-02-16T13:49:40.503Z,74.78
2023-02-16T13:52:09.097Z,71.88
2023-02-16T13:54:44.964Z,65.55
2023-02-16T13:57:13.951Z,68.53
2023-02-16T13:59:40.930Z,63.95
2023-02-16T14:02:13.084Z,68.53
2023-02-16T14:04:40.103Z,67.97
2023-02-16T14:07:10.564Z,69.43
2023-02-16T14:09:37.611Z,67.60
2023-02-16T14:12:14.449Z,62.40
2023-02-16T14:14:44.168Z,73.80
2023-02-16T14:17:21.780Z,63.58
2023-02-16T14:19:58.145Z,64.03
2023-02-16T14:22:43.421Z,61.67
2023-02-16T14:27:59.726Z,67.07
2023-02-16T14:30:29.633Z,66.55
2023-02-16T14:33:05.476Z,65.15
2023-02-16T14:35:39.580Z,67.95
2023-02-16T14:38:24.907Z,62.63
2023-02-16T14:41:00.757Z,64.22
2023-02-16T14:43:47.550Z,64.00
2023-02-16T14:46:23.532Z,66.22
2023-02-16T14:49:18.322Z,62.25
2023-02-16T14:52:00.967Z,65.50
2023-02-16T14:55:02.063Z,65.60
2023-02-16T14:58:07.166Z,60.95
2023-02-16T15:00:44.790Z,55.42
2023-02-16T15:03:41.094Z,54.17
2023-02-16T15:06:14.483Z,57.28
2023-02-16T15:08:51.766Z,59.92
2023-02-16T15:12:01.217Z,71.38
2023-02-16T15:14:37.816Z,50.35
2023-02-16T15:17:08.170Z,53.13
2023-02-16T15:19:36.004Z,52.42
2023-02-16T15:22:30.582Z,52.53
2023-02-16T15:25:04.016Z,48.25
2023-02-16T15:27:33.335Z,61.45
2023-02-16T15:30:28.411Z,66.53
2023-02-16T15:32:59.273Z,62.72
2023-02-16T15:35:35.828Z,54.45
2023-02-16T15:38:08.803Z,68.18
2023-02-16T15:40:36.514Z,55.70
2023-02-16T15:43:10.135Z,52.47
2023-02-16T15:45:38.284Z,65.47
2023-02-16T15:48:29.666Z,54.53
2023-02-16T15:51:09.904Z,55.75
2023-02-16T15:53:53.414Z,59.08
2023-02-16T15:56:40.123Z,57.63
2023-02-16T15:59:19.234Z,61.15
2023-02-16T16:01:47.560Z,62.47
2023-02-16T16:04:25.806Z,57.72
2023-02-16T16:06:53.598Z,58.53
2023-02-16T16:09:29.625Z,64.57
2023-02-16T16:12:03.034Z,61.78
2023-02-16T16:14:33.186Z,54.35
2023-02-16T16:17:00.452Z,69.32
2023-02-16T16:19:38.518Z,63.35
2023-02-16T16:22:29.204Z,63.30
2023-02-16T16:24:56.710Z,55.67
2023-02-16T16:27:36.630Z,58.97
2023-02-16T16:30:26.432Z,55.92
2023-02-16T16:33:07.886Z,54.35
2023-02-16T16:35:43.313Z,59.90
2023-02-16T16:38:33.266Z,52.08
2023-02-16T16:41:04.182Z,62.03
2023-02-16T16:43:37.794Z,55.35
2023-02-16T16:46:07.890Z,54.38
2023-02-16T16:48:39.569Z,55.58
2023-02-16T16:51:38.285Z,56.38
2023-02-16T16:54:30.707Z,55.45
2023-02-16T16:56:57.779Z,50.50
2023-02-16T16:59:24.573Z,45.88
2023-02-16T17:01:52.976Z,51.15
2023-02-16T17:04:19.986Z,61.10
2023-02-16T17:06:46.896Z,45.30
2023-02-16T17:09:15.870Z,51.25
2023-02-16T17:11:43.653Z,42.88
2023-02-16T17:14:16.911Z,54.28
2023-02-16T17:16:46.925Z,43.75
2023-02-16T17:19:15.432Z,52.78
2023-02-16T17:21:43.025Z,42.85
2023-02-16T17:24:10.577Z,45.58
2023-02-16T17:26:38.208Z,58.75
2023-02-16T17:29:06.804Z,50.97
2023-02-16T17:31:34.467Z,51.10
2023-02-16T17:34:01.587Z,45.95
2023-02-16T17:36:28.336Z,49.40
2023-02-16T17:38:55.341Z,48.83
2023-02-16T17:41:25.713Z,44.78
2023-02-16T17:43:52.617Z,48.58
2023-02-16T17:46:21.037Z,39.80
2023-02-16T17:48:50.540Z,49.42
2023-02-16T17:51:20.262Z,53.92
2023-02-16T17:53:47.400Z,51.28
2023-02-16T17:56:15.945Z,45.80
2023-02-16T17:58:43.008Z,51.97
2023-02-16T18:01:14.926Z,45.35
2023-02-16T18:03:41.996Z,43.47
2023-02-16T18:06:13.322Z,46.72
2023-02-16T18:08:40.508Z,43.42
2023-02-16T18:11:07.509Z,43.13
2023-02-16T18:13:34.478Z,50.83
2023-02-16T18:16:04.699Z,49.10
2023-02-16T18:18:34.973Z,48.13
2023-02-16T18:21:02.823Z,39.45
2023-02-16T18:23:29.845Z,46.42
2023-02-16T18:25:56.851Z,47.63
2023-02-16T18:28:28.509Z,50.08
2023-02-16T18:30:55.717Z,54.38
2023-02-16T18:33:23.990Z,49.05
2023-02-16T18:35:52.737Z,49.55
2023-02-16T18:38:22.089Z,49.75
2023-02-16T18:40:50.096Z,60.10
2023-02-16T18:43:17.092Z,44.22
2023-02-16T18:45:44.099Z,46.58
2023-02-16T18:48:11.070Z,54.10
2023-02-16T18:50:38.316Z,47.67
2023-02-16T18:53:05.025Z,48.47
2023-02-16T18:55:33.356Z,43.78
2023-02-16T18:58:01.677Z,46.70
2023-02-16T19:00:28.775Z,52.03
2023-02-16T19:02:57.058Z,42.00
2023-02-16T19:05:24.480Z,45.38
2023-02-16T19:07:51.488Z,47.60
2023-02-16T19:10:19.456Z,44.63
2023-02-16T19:12:46.449Z,54.08
2023-02-16T19:15:13.373Z,45.95
2023-02-16T19:17:40.446Z,53.67
2023-02-16T19:20:10.048Z,40.60
2023-02-16T19:22:38.410Z,50.47
2023-02-16T19:25:07.359Z,50.33
2023-02-16T19:27:34.455Z,46.35
2023-02-16T19:30:01.581Z,44.08
2023-02-16T19:32:30.598Z,46.67
2023-02-16T19:34:57.638Z,50.30
2023-02-16T19:37:24.957Z,45.83
2023-02-16T19:39:52.032Z,46.53
2023-02-16T19:42:18.776Z,45.45
2023-02-16T19:44:45.662Z,47.42
2023-02-16T19:47:12.703Z,46.78
2023-02-16T19:49:39.845Z,51.25
2023-02-16T19:52:06.962Z,53.05
2023-02-16T19:54:36.043Z,50.97
2023-02-16T19:57:04.127Z,49.70
2023-02-16T19:59:34.505Z,47.75
2023-02-16T20:02:01.462Z,41.75
2023-02-16T20:04:28.351Z,54.70
2023-02-16T20:06:56.593Z,55.88
2023-02-16T20:09:24.314Z,42.47
2023-02-16T20:11:51.921Z,57.47
2023-02-16T20:14:19.652Z,49.00
2023-02-16T20:16:46.913Z,43.85
2023-02-16T20:19:14.503Z,45.63
2023-02-16T20:21:44.264Z,47.05
2023-02-16T20:24:12.371Z,52.53
2023-02-16T20:26:45.347Z,46.08
2023-02-16T20:29:16.467Z,55.70
2023-02-16T20:31:48.958Z,51.30
2023-02-16T20:34:15.926Z,60.63
2023-02-16T20:36:43.033Z,58.00
2023-02-16T20:39:10.161Z,55.13
2023-02-16T20:41:37.558Z,59.38
2023-02-16T20:44:05.292Z,53.10
2023-02-16T20:46:32.252Z,55.17
2023-02-16T20:49:01.904Z,56.97
2023-02-16T20:51:29.108Z,59.58
2023-02-16T20:53:55.966Z,57.22
2023-02-16T20:56:25.142Z,50.42
2023-02-16T20:58:54.002Z,50.83
2023-02-16T21:01:40.371Z,53.92
2023-02-16T21:04:08.452Z,57.70
2023-02-16T21:06:36.006Z,52.92
2023-02-16T21:09:03.966Z,62.20
2023-02-16T21:11:31.534Z,51.72
2023-02-16T21:13:58.424Z,50.08
2023-02-16T21:16:25.904Z,59.85
2023-02-16T21:18:52.884Z,46.88
2023-02-16T21:21:19.841Z,50.92
2023-02-16T21:23:49.831Z,55.28
2023-02-16T21:26:18.279Z,60.47
2023-02-16T21:28:45.377Z,54.53
2023-02-16T21:31:16.029Z,54.70
2023-02-16T21:33:43.219Z,50.72
2023-02-16T21:36:22.564Z,57.78
2023-02-16T21:38:49.701Z,50.65
2023-02-16T21:41:26.344Z,48.88
2023-02-16T21:44:09.891Z,57.90
2023-02-16T21:46:36.710Z,54.92
2023-02-16T21:49:06.404Z,59.00
2023-02-16T21:51:37.203Z,54.08
2023-02-16T21:54:08.962Z,47.20
2023-02-16T21:56:40.349Z,54.00
2023-02-16T21:59:13.697Z,63.30
2023-02-16T22:01:43.329Z,56.05
2023-02-16T22:04:16.168Z,60.03
2023-02-16T22:06:46.913Z,52.22
2023-02-16T22:09:17.700Z,46.03
2023-02-16T22:11:45.728Z,54.75
2023-02-16T22:14:12.996Z,45.85
2023-02-16T22:16:40.690Z,54.08
2023-02-16T22:19:12.462Z,49.58
2023-02-16T22:21:41.772Z,49.92
2023-02-16T22:24:11.285Z,52.72
2023-02-16T22:26:38.233Z,57.38
2023-02-16T22:29:07.508Z,48.25
2023-02-16T22:31:34.553Z,44.88
2023-02-16T22:34:04.549Z,56.50
2023-02-16T22:36:31.660Z,57.70
2023-02-16T22:38:58.751Z,46.75
2023-02-16T22:41:26.366Z,53.20
2023-02-16T22:43:55.381Z,55.05
2023-02-16T22:46:24.385Z,48.83
2023-02-16T22:48:52.342Z,53.42
2023-02-16T22:51:21.244Z,48.65
2023-02-16T22:53:48.805Z,49.35
2023-02-16T22:56:17.864Z,47.53
2023-02-16T22:58:45.621Z,48.17
2023-02-16T23:01:15.086Z,46.53
2023-02-16T23:03:42.964Z,47.67
2023-02-16T23:06:19.259Z,57.35
2023-02-16T23:08:47.033Z,49.95
2023-02-16T23:11:13.911Z,54.72
2023-02-16T23:13:40.561Z,39.28
2023-02-16T23:16:13.074Z,43.90
2023-02-16T23:18:40.315Z,49.25
2023-02-16T23:21:16.273Z,47.22
2023-02-16T23:23:43.230Z,50.72
2023-02-16T23:26:10.498Z,58.40
2023-02-16T23:28:39.414Z,58.80
2023-02-16T23:31:06.833Z,65.63
2023-02-16T23:33:34.154Z,60.15
2023-02-16T23:36:01.355Z,66.60
2023-02-16T23:38:31.082Z,51.03
2023-02-16T23:41:03.091Z,59.95
2023-02-16T23:43:30.457Z,54.20
2023-02-16T23:45:57.818Z,36.58
2023-02-16T23:48:24.818Z,46.00
2023-02-16T23:50:52.725Z,48.63
2023-02-16T23:53:21.381Z,44.88
2023-02-16T23:55:58.534Z,55.47
2023-02-16T23:58:27.613Z,56.65
